createdAt,value
2023-05-10T00:00:37.227Z,13.31
2023-05-10T00:03:03.551Z,13.25
2023-05-10T00:05:29.897Z,13.28
2023-05-10T00:07:56.217Z,13.18
2023-05-10T00:10:22.546Z,13.20
2023-05-10T00:12:48.948Z,13.18
2023-05-10T00:15:15.308Z,13.13
2023-05-10T00:17:41.661Z,13.19
2023-05-10T00:20:08.027Z,13.12
2023-05-10T00:22:34.335Z,13.18
2023-05-10T00:25:00.636Z,13.20
2023-05-10T00:27:26.939Z,13.13
2023-05-10T00:29:53.244Z,13.12
2023-05-10T00:32:19.578Z,13.08
2023-05-10T00:34:45.924Z,12.98
2023-05-10T00:37:12.234Z,12.91
2023-05-10T00:39:38.580Z,12.87
2023-05-10T00:42:04.914Z,12.85
2023-05-10T00:44:31.238Z,12.84
2023-05-10T00:46:57.568Z,12.83
2023-05-10T00:49:23.907Z,12.76
2023-05-10T00:51:50.210Z,12.79
2023-05-10T00:54:16.533Z,12.74
2023-05-10T00:56:42.860Z,12.80
2023-05-10T00:59:09.183Z,12.85
2023-05-10T01:01:35.549Z,12.85
2023-05-10T01:04:01.885Z,12.73
2023-05-10T01:06:28.189Z,12.79
2023-05-10T01:08:54.490Z,12.90
2023-05-10T01:11:20.813Z,12.86
2023-05-10T01:13:47.149Z,12.81
2023-05-10T01:16:13.567Z,12.83
2023-05-10T01:18:39.895Z,12.89
2023-05-10T01:21:06.221Z,12.83
2023-05-10T01:23:32.560Z,12.81
2023-05-10T01:25:58.877Z,12.94
2023-05-10T01:28:25.192Z,12.86
2023-05-10T01:30:51.521Z,12.85
2023-05-10T01:33:17.821Z,12.81
2023-05-10T01:35:44.149Z,12.76
2023-05-10T01:38:10.453Z,12.18
2023-05-10T01:40:36.764Z,12.37
2023-05-10T01:43:03.087Z,12.24
2023-05-10T01:45:29.400Z,12.18
2023-05-10T01:47:55.758Z,12.17
2023-05-10T01:50:22.081Z,12.13
2023-05-10T01:52:48.393Z,12.22
2023-05-10T01:55:14.710Z,12.17
2023-05-10T01:57:41.045Z,12.17
2023-05-10T02:00:07.361Z,12.29
2023-05-10T02:02:33.713Z,12.28
2023-05-10T02:05:00.047Z,12.40
2023-05-10T02:07:26.344Z,12.35
2023-05-10T02:09:52.673Z,12.48
2023-05-10T02:12:18.996Z,12.34
2023-05-10T02:14:45.312Z,12.32
2023-05-10T02:17:11.623Z,12.31
2023-05-10T02:19:37.962Z,12.27
2023-05-10T02:22:04.314Z,12.32
2023-05-10T02:24:30.646Z,12.48
2023-05-10T02:26:56.947Z,12.44
2023-05-10T02:29:23.269Z,12.36
2023-05-10T02:31:49.614Z,12.27
2023-05-10T02:34:15.937Z,12.39
2023-05-10T02:36:42.247Z,12.29
2023-05-10T02:39:08.569Z,12.23
2023-05-10T02:41:34.969Z,12.18
2023-05-10T02:44:01.297Z,11.96
2023-05-10T02:46:27.701Z,12.01
2023-05-10T02:48:54.072Z,11.97
2023-05-10T02:51:20.382Z,11.94
2023-05-10T02:53:46.713Z,11.97
2023-05-10T02:56:13.016Z,11.99
2023-05-10T02:58:39.335Z,12.03
2023-05-10T03:01:05.752Z,11.95
2023-05-10T03:03:32.069Z,11.97
2023-05-10T03:05:58.400Z,11.89
2023-05-10T03:08:24.709Z,11.86
2023-05-10T03:10:51.014Z,11.91
2023-05-10T03:13:17.364Z,12.05
2023-05-10T03:15:43.707Z,12.13
2023-05-10T03:18:10.015Z,12.13
2023-05-10T03:20:36.348Z,12.21
2023-05-10T03:23:02.666Z,12.20
2023-05-10T03:25:28.966Z,12.24
2023-05-10T03:27:55.273Z,12.22
2023-05-10T03:30:21.593Z,12.26
2023-05-10T03:32:47.994Z,12.21
2023-05-10T03:35:14.335Z,12.08
2023-05-10T03:37:40.655Z,12.07
2023-05-10T03:40:06.977Z,12.17
2023-05-10T03:42:33.300Z,12.12
2023-05-10T03:44:59.608Z,12.14
2023-05-10T03:47:25.940Z,12.21
2023-05-10T03:49:52.261Z,12.23
2023-05-10T03:52:18.582Z,12.13
2023-05-10T03:54:44.902Z,12.09
2023-05-10T03:57:11.218Z,12.03
2023-05-10T03:59:37.597Z,11.99
2023-05-10T04:02:04.063Z,11.93
2023-05-10T04:04:30.423Z,11.89
2023-05-10T04:06:56.720Z,11.76
2023-05-10T04:09:23.023Z,11.80
2023-05-10T04:11:49.326Z,11.81
2023-05-10T04:14:15.647Z,11.74
2023-05-10T04:16:42.000Z,11.79
2023-05-10T04:19:08.413Z,11.80
2023-05-10T04:21:34.716Z,11.72
2023-05-10T04:24:01.023Z,11.83
2023-05-10T04:26:27.322Z,11.76
2023-05-10T04:28:53.649Z,11.86
2023-05-10T04:31:20.097Z,11.82
2023-05-10T04:33:46.583Z,11.97
2023-05-10T04:36:12.906Z,11.93
2023-05-10T04:38:39.230Z,11.83
2023-05-10T04:41:05.607Z,11.81
2023-05-10T04:43:31.911Z,11.69
2023-05-10T04:45:58.247Z,11.67
2023-05-10T04:48:24.583Z,11.45
2023-05-10T04:50:50.909Z,11.42
2023-05-10T04:53:17.244Z,11.31
2023-05-10T04:55:43.564Z,11.24
2023-05-10T04:58:09.872Z,11.17
2023-05-10T05:00:36.178Z,11.30
2023-05-10T05:03:02.643Z,11.29
2023-05-10T05:05:29.087Z,11.25
2023-05-10T05:07:55.388Z,11.48
2023-05-10T05:10:21.681Z,11.55
2023-05-10T05:12:48.017Z,11.56
2023-05-10T05:15:14.363Z,11.46
2023-05-10T05:17:40.720Z,11.54
2023-05-10T05:20:07.062Z,11.49
2023-05-10T05:22:33.381Z,11.75
2023-05-10T05:24:59.698Z,11.81
2023-05-10T05:27:26.021Z,11.75
2023-05-10T05:29:52.387Z,11.68
2023-05-10T05:32:18.686Z,11.54
2023-05-10T05:34:44.981Z,11.48
2023-05-10T05:37:11.296Z,11.57
2023-05-10T05:39:37.641Z,11.58
2023-05-10T05:42:03.972Z,11.62
2023-05-10T05:44:30.279Z,11.69
2023-05-10T05:46:56.582Z,11.79
2023-05-10T05:49:22.909Z,11.93
2023-05-10T05:51:49.239Z,11.98
2023-05-10T05:54:15.581Z,12.12
2023-05-10T05:56:41.915Z,12.13
2023-05-10T05:59:08.239Z,12.19
2023-05-10T06:01:34.561Z,12.24
2023-05-10T06:04:00.937Z,12.24
2023-05-10T06:06:27.311Z,12.15
2023-05-10T06:08:53.616Z,12.06
2023-05-10T06:11:19.941Z,12.16
2023-05-10T06:13:46.263Z,12.20
2023-05-10T06:16:12.581Z,12.00
2023-05-10T06:18:38.928Z,12.05
2023-05-10T06:21:05.243Z,12.00
2023-05-10T06:23:31.560Z,11.91
2023-05-10T06:25:57.892Z,11.98
2023-05-10T06:28:24.210Z,12.08
2023-05-10T06:30:50.532Z,11.99
2023-05-10T06:33:16.964Z,11.84
2023-05-10T06:35:43.303Z,11.70
2023-05-10T06:38:09.633Z,11.29
2023-05-10T06:40:35.961Z,11.13
2023-05-10T06:43:02.286Z,11.04
2023-05-10T06:45:28.612Z,11.08
2023-05-10T06:47:54.950Z,11.00
2023-05-10T06:50:21.268Z,11.00
2023-05-10T06:52:47.575Z,10.91
2023-05-10T06:55:13.935Z,11.07
2023-05-10T06:57:40.356Z,10.96
2023-05-10T07:00:06.751Z,11.16
2023-05-10T07:02:33.186Z,11.21
2023-05-10T07:05:01.728Z,11.22
2023-05-10T07:07:41.395Z,11.20
2023-05-10T07:10:07.721Z,11.30
2023-05-10T07:12:34.139Z,11.35
2023-05-10T07:15:00.564Z,11.31
2023-05-10T07:17:27.014Z,11.30
2023-05-10T07:19:53.400Z,11.56
2023-05-10T07:22:19.705Z,11.46
2023-05-10T07:24:46.019Z,11.34
2023-05-10T07:27:12.359Z,11.34
2023-05-10T07:29:38.677Z,11.44
2023-05-10T07:32:05.019Z,11.37
2023-05-10T07:34:31.362Z,11.42
2023-05-10T07:36:57.674Z,11.30
2023-05-10T07:39:27.043Z,11.49
2023-05-10T07:41:54.414Z,11.56
2023-05-10T07:44:20.741Z,11.82
2023-05-10T07:46:47.068Z,11.61
2023-05-10T07:49:13.415Z,11.83
2023-05-10T07:51:39.788Z,11.92
2023-05-10T07:54:06.109Z,11.88
2023-05-10T07:56:32.428Z,11.88
2023-05-10T07:58:58.764Z,11.88
2023-05-10T08:01:25.091Z,12.04
2023-05-10T08:03:51.447Z,12.07
2023-05-10T08:06:17.812Z,11.92
2023-05-10T08:08:44.134Z,12.05
2023-05-10T08:11:10.442Z,11.94
2023-05-10T08:13:36.752Z,11.87
2023-05-10T08:16:03.129Z,11.79
2023-05-10T08:18:29.480Z,11.82
2023-05-10T08:20:55.827Z,11.86
2023-05-10T08:23:22.218Z,11.96
2023-05-10T08:25:48.545Z,12.13
2023-05-10T08:28:14.862Z,12.12
2023-05-10T08:30:41.181Z,12.20
2023-05-10T08:33:07.497Z,12.01
2023-05-10T08:35:33.839Z,11.98
2023-05-10T08:38:00.152Z,11.84
2023-05-10T08:40:26.457Z,11.86
2023-05-10T08:42:52.801Z,11.90
2023-05-10T08:45:19.328Z,11.96
2023-05-10T08:47:45.950Z,11.99
2023-05-10T08:50:12.325Z,12.10
2023-05-10T08:52:38.642Z,12.13
2023-05-10T08:55:04.953Z,12.25
2023-05-10T08:57:31.321Z,12.26
2023-05-10T08:59:57.628Z,12.48
2023-05-10T09:02:24.055Z,12.44
2023-05-10T09:04:50.483Z,12.64
2023-05-10T09:07:16.918Z,12.58
2023-05-10T09:09:43.242Z,12.83
2023-05-10T09:12:09.564Z,13.11
2023-05-10T09:14:35.864Z,13.10
2023-05-10T09:17:02.258Z,13.10
2023-05-10T09:19:28.718Z,13.08
2023-05-10T09:21:55.040Z,12.96
2023-05-10T09:24:21.356Z,12.96
2023-05-10T09:26:47.660Z,12.93
2023-05-10T09:29:15.892Z,12.93
2023-05-10T09:31:43.597Z,13.13
2023-05-10T09:34:09.912Z,13.29
2023-05-10T09:36:36.219Z,13.45
2023-05-10T09:39:02.548Z,13.57
2023-05-10T09:41:28.861Z,13.64
2023-05-10T09:43:55.165Z,13.78
2023-05-10T09:46:21.535Z,13.76
2023-05-10T09:48:47.886Z,13.71
2023-05-10T09:51:14.229Z,13.63
2023-05-10T09:53:40.543Z,13.69
2023-05-10T09:56:06.854Z,13.41
2023-05-10T09:58:33.164Z,13.36
2023-05-10T10:00:59.497Z,13.46
2023-05-10T10:03:26.280Z,13.70
2023-05-10T10:05:53.624Z,13.78
2023-05-10T10:08:19.945Z,13.76
2023-05-10T10:10:46.861Z,14.00
2023-05-10T10:13:13.238Z,13.90
2023-05-10T10:15:39.617Z,13.86
2023-05-10T10:18:06.020Z,13.85
2023-05-10T10:20:32.362Z,13.74
2023-05-10T10:22:58.697Z,13.92
2023-05-10T10:25:25.011Z,14.03
2023-05-10T10:27:51.320Z,14.44
2023-05-10T10:30:17.645Z,14.57
2023-05-10T10:32:44.000Z,14.67
2023-05-10T10:35:10.328Z,15.01
2023-05-10T10:37:36.712Z,15.00
2023-05-10T10:40:03.014Z,14.76
2023-05-10T10:42:29.329Z,14.68
2023-05-10T10:44:55.664Z,14.85
2023-05-10T10:47:21.977Z,14.89
2023-05-10T10:49:48.322Z,15.03
2023-05-10T10:52:14.645Z,14.97
2023-05-10T10:54:40.969Z,14.84
2023-05-10T10:57:07.274Z,14.70
2023-05-10T10:59:33.572Z,14.99
2023-05-10T11:01:59.888Z,15.20
2023-05-10T11:04:26.304Z,15.24
2023-05-10T11:06:52.671Z,15.41
2023-05-10T11:09:19.007Z,15.36
2023-05-10T11:11:45.350Z,15.03
2023-05-10T11:14:11.713Z,15.11
2023-05-10T11:16:38.057Z,14.73
2023-05-10T11:19:04.512Z,14.52
2023-05-10T11:21:30.940Z,13.92
2023-05-10T11:23:57.321Z,13.65
2023-05-10T11:26:23.667Z,13.56
2023-05-10T11:28:49.971Z,13.51
2023-05-10T11:31:16.327Z,13.36
2023-05-10T11:33:42.700Z,13.22
2023-05-10T11:36:09.013Z,13.28
2023-05-10T11:38:35.328Z,13.25
2023-05-10T11:41:01.659Z,13.39
2023-05-10T11:43:27.958Z,13.24
2023-05-10T11:45:54.362Z,13.40
2023-05-10T11:48:20.694Z,13.46
2023-05-10T11:50:46.989Z,13.66
2023-05-10T11:53:13.299Z,13.78
2023-05-10T11:55:39.608Z,13.85
2023-05-10T11:58:05.911Z,13.94
2023-05-10T12:00:32.234Z,13.82
2023-05-10T12:02:58.604Z,13.90
2023-05-10T12:05:24.950Z,13.87
2023-05-10T12:07:51.259Z,13.96
2023-05-10T12:10:17.720Z,13.91
2023-05-10T12:12:44.266Z,13.64
2023-05-10T12:15:10.587Z,13.90
2023-05-10T12:17:36.961Z,14.12
2023-05-10T12:20:03.284Z,14.50
2023-05-10T12:22:29.613Z,14.73
2023-05-10T12:24:55.924Z,14.90
2023-05-10T12:27:22.228Z,14.91
2023-05-10T12:29:48.614Z,14.93
2023-05-10T12:32:14.998Z,14.89
2023-05-10T12:34:41.357Z,14.83
2023-05-10T12:37:07.724Z,14.43
2023-05-10T12:39:34.025Z,14.60
2023-05-10T12:42:00.341Z,14.41
2023-05-10T12:44:26.654Z,14.66
2023-05-10T12:46:52.989Z,14.42
2023-05-10T12:49:19.330Z,14.75
2023-05-10T12:51:45.711Z,14.62
2023-05-10T12:54:12.026Z,14.58
2023-05-10T12:56:38.349Z,14.41
2023-05-10T12:59:04.669Z,13.97
2023-05-10T13:01:30.995Z,14.07
2023-05-10T13:03:57.362Z,14.11
2023-05-10T13:06:23.704Z,14.07
2023-05-10T13:08:50.033Z,14.45
2023-05-10T13:11:16.353Z,14.41
2023-05-10T13:13:42.686Z,14.32
2023-05-10T13:16:09.015Z,14.31
2023-05-10T13:18:35.373Z,14.32
2023-05-10T13:21:01.688Z,14.30
2023-05-10T13:23:28.006Z,14.57
2023-05-10T13:25:54.320Z,14.79
2023-05-10T13:28:20.623Z,14.87
2023-05-10T13:30:46.956Z,14.82
2023-05-10T13:33:13.278Z,14.74
2023-05-10T13:35:39.616Z,14.59
2023-05-10T13:38:05.922Z,14.35
2023-05-10T13:40:32.245Z,14.14
2023-05-10T13:42:58.548Z,14.07
2023-05-10T13:45:24.865Z,13.64
2023-05-10T13:47:51.213Z,13.56
2023-05-10T13:50:17.546Z,13.32
2023-05-10T13:52:43.850Z,13.17
2023-05-10T13:55:10.176Z,13.22
2023-05-10T13:57:36.533Z,13.16
2023-05-10T14:00:02.880Z,13.20
2023-05-10T14:02:29.262Z,13.26
2023-05-10T14:04:55.636Z,13.33
2023-05-10T14:07:21.960Z,13.28
2023-05-10T14:09:48.278Z,13.28
2023-05-10T14:12:14.573Z,13.11
2023-05-10T14:14:40.891Z,13.25
2023-05-10T14:17:07.627Z,13.08
2023-05-10T14:19:35.028Z,13.25
2023-05-10T14:22:01.356Z,13.35
2023-05-10T14:24:27.799Z,13.47
2023-05-10T14:26:54.132Z,13.40
2023-05-10T14:29:20.453Z,13.10
2023-05-10T14:31:46.784Z,13.22
2023-05-10T14:34:13.169Z,13.29
2023-05-10T14:36:39.501Z,13.50
2023-05-10T14:39:05.823Z,13.72
2023-05-10T14:41:32.145Z,13.72
2023-05-10T14:43:58.461Z,13.85
2023-05-10T14:46:24.852Z,13.68
2023-05-10T14:48:51.214Z,13.71
2023-05-10T14:51:17.516Z,13.79
2023-05-10T14:53:43.866Z,13.62
2023-05-10T14:56:10.299Z,13.72
2023-05-10T14:58:36.646Z,13.53
2023-05-10T15:01:02.985Z,13.60
2023-05-10T15:03:29.954Z,13.66
2023-05-10T15:05:56.888Z,13.56
2023-05-10T15:08:23.228Z,13.62
2023-05-10T15:10:49.522Z,13.45
2023-05-10T15:13:15.835Z,13.21
2023-05-10T15:15:42.191Z,13.34
2023-05-10T15:18:08.624Z,13.53
2023-05-10T15:20:34.981Z,13.53
2023-05-10T15:23:01.306Z,13.57
2023-05-10T15:25:27.628Z,13.56
2023-05-10T15:27:53.955Z,13.60
2023-05-10T15:30:20.276Z,13.59
2023-05-10T15:32:46.635Z,13.54
2023-05-10T15:35:12.988Z,13.40
2023-05-10T15:37:39.323Z,13.32
2023-05-10T15:40:05.620Z,13.54
2023-05-10T15:42:31.924Z,13.42
2023-05-10T15:44:58.213Z,13.46
2023-05-10T15:47:24.542Z,13.34
2023-05-10T15:49:50.853Z,13.35
2023-05-10T15:52:17.146Z,13.16
2023-05-10T15:54:43.448Z,13.02
2023-05-10T15:57:09.745Z,12.99
2023-05-10T15:59:36.071Z,12.99
2023-05-10T16:02:02.400Z,12.75
2023-05-10T16:04:28.751Z,12.74
2023-05-10T16:06:55.105Z,12.62
2023-05-10T16:09:21.426Z,12.72
2023-05-10T16:11:47.738Z,12.81
2023-05-10T16:14:14.048Z,12.75
2023-05-10T16:16:40.441Z,12.76
2023-05-10T16:19:06.827Z,12.78
2023-05-10T16:21:33.160Z,12.74
2023-05-10T16:23:59.470Z,12.53
2023-05-10T16:26:25.773Z,12.66
2023-05-10T16:28:52.082Z,12.58
2023-05-10T16:31:18.466Z,12.51
2023-05-10T16:33:44.809Z,12.52
2023-05-10T16:36:11.151Z,12.58
2023-05-10T16:38:37.458Z,12.69
2023-05-10T16:41:03.757Z,12.70
2023-05-10T16:43:30.085Z,12.55
2023-05-10T16:45:56.406Z,12.65
2023-05-10T16:48:22.724Z,12.66
2023-05-10T16:50:49.061Z,12.85
2023-05-10T16:53:15.362Z,12.89
2023-05-10T16:55:41.665Z,12.81
2023-05-10T16:58:07.962Z,12.58
2023-05-10T17:00:34.288Z,12.66
2023-05-10T17:03:00.724Z,12.47
2023-05-10T17:05:27.116Z,12.54
2023-05-10T17:07:53.429Z,12.52
2023-05-10T17:10:19.772Z,12.44
2023-05-10T17:12:46.088Z,12.55
2023-05-10T17:15:12.423Z,12.55
2023-05-10T17:17:38.816Z,12.52
2023-05-10T17:20:05.153Z,12.71
2023-05-10T17:22:31.493Z,12.86
2023-05-10T17:24:57.798Z,12.78
2023-05-10T17:27:24.106Z,12.94
2023-05-10T17:29:50.437Z,12.97
2023-05-10T17:32:16.741Z,13.14
2023-05-10T17:34:43.064Z,13.32
2023-05-10T17:37:09.376Z,13.55
2023-05-10T17:39:36.153Z,13.50
2023-05-10T17:42:03.485Z,13.73
2023-05-10T17:44:29.846Z,13.82
2023-05-10T17:46:56.149Z,14.00
2023-05-10T17:49:22.468Z,14.06
2023-05-10T17:51:48.797Z,14.03
2023-05-10T17:54:15.103Z,14.12
2023-05-10T17:56:41.404Z,14.14
2023-05-10T17:59:07.715Z,13.98
2023-05-10T18:01:34.038Z,13.78
2023-05-10T18:04:00.365Z,13.59
2023-05-10T18:06:26.673Z,13.57
2023-05-10T18:08:52.976Z,13.41
2023-05-10T18:11:19.299Z,13.38
2023-05-10T18:13:45.597Z,13.24
2023-05-10T18:16:11.918Z,13.21
2023-05-10T18:18:38.268Z,13.05
2023-05-10T18:21:04.601Z,13.13
2023-05-10T18:23:30.914Z,12.97
2023-05-10T18:25:57.234Z,12.84
2023-05-10T18:28:23.557Z,12.81
2023-05-10T18:30:49.898Z,12.80
2023-05-10T18:33:17.294Z,12.67
2023-05-10T18:35:43.611Z,12.65
2023-05-10T18:38:09.951Z,12.43
2023-05-10T18:40:36.246Z,12.44
2023-05-10T18:43:02.573Z,12.42
2023-05-10T18:45:28.873Z,12.42
2023-05-10T18:47:55.209Z,12.43
2023-05-10T18:50:21.548Z,12.32
2023-05-10T18:52:47.856Z,12.24
2023-05-10T18:55:14.308Z,12.32
2023-05-10T18:57:40.748Z,12.23
2023-05-10T19:00:07.058Z,12.30
2023-05-10T19:02:33.512Z,12.51
2023-05-10T19:04:59.915Z,12.40
2023-05-10T19:07:26.366Z,12.47
2023-05-10T19:09:52.717Z,12.50
2023-05-10T19:12:19.022Z,12.36
2023-05-10T19:14:45.348Z,12.34
2023-05-10T19:17:14.294Z,12.17
2023-05-10T19:19:40.613Z,12.12
2023-05-10T19:22:06.930Z,12.03
2023-05-10T19:24:33.876Z,11.96
2023-05-10T19:27:00.672Z,12.01
2023-05-10T19:29:27.101Z,11.90
2023-05-10T19:31:53.568Z,11.94
2023-05-10T19:34:20.027Z,11.83
2023-05-10T19:36:46.342Z,11.88
2023-05-10T19:39:12.656Z,11.93
2023-05-10T19:41:39.023Z,11.82
2023-05-10T19:44:05.406Z,11.83
2023-05-10T19:46:31.761Z,11.79
2023-05-10T19:48:58.078Z,11.89
2023-05-10T19:51:24.392Z,11.84
2023-05-10T19:53:50.697Z,11.87
2023-05-10T19:56:16.994Z,11.90
2023-05-10T19:58:43.309Z,11.97
2023-05-10T20:01:09.639Z,11.93
2023-05-10T20:03:36.137Z,11.89
2023-05-10T20:06:02.524Z,11.87
2023-05-10T20:08:28.877Z,11.83
2023-05-10T20:10:55.197Z,11.70
2023-05-10T20:13:21.546Z,11.57
2023-05-10T20:15:47.853Z,11.62
2023-05-10T20:18:14.183Z,11.59
2023-05-10T20:20:40.534Z,11.48
2023-05-10T20:23:06.847Z,11.43
2023-05-10T20:25:33.144Z,11.41
2023-05-10T20:27:59.440Z,11.37
2023-05-10T20:30:25.741Z,11.34
2023-05-10T20:32:52.139Z,11.35
2023-05-10T20:35:18.449Z,11.35
2023-05-10T20:37:44.785Z,11.29
2023-05-10T20:40:11.181Z,11.26
2023-05-10T20:42:37.562Z,11.25
2023-05-10T20:45:03.888Z,11.28
2023-05-10T20:47:30.284Z,11.29
2023-05-10T20:49:56.724Z,11.32
2023-05-10T20:52:24.528Z,11.37
2023-05-10T20:54:50.986Z,11.30
2023-05-10T20:57:17.307Z,11.34
2023-05-10T20:59:43.615Z,11.36
2023-05-10T21:02:09.948Z,11.31
2023-05-10T21:04:36.313Z,11.31
2023-05-10T21:07:02.622Z,11.34
2023-05-10T21:09:28.932Z,11.38
2023-05-10T21:11:55.239Z,11.42
2023-05-10T21:14:21.575Z,11.35
2023-05-10T21:16:47.900Z,11.46
2023-05-10T21:19:14.243Z,11.58
2023-05-10T21:21:40.543Z,11.67
2023-05-10T21:24:06.863Z,11.72
2023-05-10T21:26:33.200Z,11.66
2023-05-10T21:28:59.525Z,11.70
2023-05-10T21:31:25.986Z,11.70
2023-05-10T21:33:52.385Z,11.66
2023-05-10T21:36:18.723Z,11.64
2023-05-10T21:38:45.145Z,11.69
2023-05-10T21:41:11.459Z,11.74
2023-05-10T21:43:37.773Z,11.51
2023-05-10T21:46:04.167Z,11.58
2023-05-10T21:48:30.547Z,11.64
2023-05-10T21:50:56.848Z,11.71
2023-05-10T21:53:23.151Z,11.66
2023-05-10T21:55:49.455Z,11.71
2023-05-10T21:58:15.769Z,11.67
2023-05-10T22:00:42.093Z,11.61
2023-05-10T22:03:08.590Z,11.57
2023-05-10T22:05:35.037Z,11.55
2023-05-10T22:08:01.380Z,11.49
2023-05-10T22:10:27.682Z,11.40
2023-05-10T22:12:54.013Z,11.25
2023-05-10T22:15:20.325Z,11.15
2023-05-10T22:17:46.695Z,11.12
2023-05-10T22:20:13.030Z,11.10
2023-05-10T22:22:39.353Z,11.01
2023-05-10T22:25:05.677Z,11.01
2023-05-10T22:27:31.983Z,11.00
2023-05-10T22:29:58.285Z,10.96
2023-05-10T22:32:24.655Z,10.93
2023-05-10T22:34:51.007Z,10.89
2023-05-10T22:37:17.308Z,10.87
2023-05-10T22:39:43.602Z,10.90
2023-05-10T22:42:09.902Z,10.86
2023-05-10T22:44:36.231Z,10.91
2023-05-10T22:47:02.547Z,10.92
2023-05-10T22:49:28.860Z,10.93
2023-05-10T22:51:55.189Z,10.90
2023-05-10T22:54:21.517Z,10.89
2023-05-10T22:56:47.825Z,10.85
2023-05-10T22:59:14.129Z,10.91
2023-05-10T23:01:40.486Z,10.93
2023-05-10T23:04:06.895Z,10.94
2023-05-10T23:06:33.249Z,10.88
2023-05-10T23:08:59.571Z,10.87
2023-05-10T23:11:25.883Z,10.85
2023-05-10T23:13:52.176Z,10.83
2023-05-10T23:16:18.644Z,10.89
2023-05-10T23:18:45.139Z,10.94
2023-05-10T23:21:11.482Z,10.90
2023-05-10T23:23:37.861Z,10.90
2023-05-10T23:26:04.197Z,10.87
2023-05-10T23:28:30.508Z,10.87
2023-05-10T23:30:56.807Z,10.85
2023-05-10T23:33:23.123Z,10.82
2023-05-10T23:35:49.434Z,10.91
2023-05-10T23:38:15.744Z,10.81
2023-05-10T23:40:42.061Z,10.79
2023-05-10T23:43:08.373Z,10.78
2023-05-10T23:45:34.741Z,10.76
2023-05-10T23:48:01.088Z,10.76
2023-05-10T23:50:27.465Z,10.76
2023-05-10T23:52:53.757Z,10.80
2023-05-10T23:55:20.081Z,10.81
2023-05-10T23:57:46.381Z,10.80
